sensor_id;sensor_type;location;lat;lon;timestamp;P1;durP1;ratioP1;P2;durP2;ratioP2
22894;SDS011;11614;52.494;6.976;2023-07-30T00:01:17;8.07;;;3.73;;
22894;SDS011;11614;52.494;6.976;2023-07-30T00:03:43;12.07;;;4.30;;
22894;SDS011;11614;52.494;6.976;2023-07-30T00:06:09;7.33;;;4.30;;
22894;SDS011;11614;52.494;6.976;2023-07-30T00:08:35;6.37;;;4.30;;
22894;SDS011;11614;52.494;6.976;2023-07-30T00:11:01;12.00;;;4.40;;
22894;SDS011;11614;52.494;6.976;2023-07-30T00:13:26;7.07;;;4.20;;
22894;SDS011;11614;52.494;6.976;2023-07-30T00:15:52;8.47;;;4.47;;
22894;SDS011;11614;52.494;6.976;2023-07-30T00:18:18;12.20;;;4.97;;
22894;SDS011;11614;52.494;6.976;2023-07-30T00:20:44;8.53;;;4.40;;
22894;SDS011;11614;52.494;6.976;2023-07-30T00:23:10;6.17;;;3.77;;
22894;SDS011;11614;52.494;6.976;2023-07-30T00:25:36;10.33;;;4.40;;
22894;SDS011;11614;52.494;6.976;2023-07-30T00:28:02;6.03;;;4.00;;
22894;SDS011;11614;52.494;6.976;2023-07-30T00:30:28;10.60;;;4.87;;
22894;SDS011;11614;52.494;6.976;2023-07-30T00:32:54;9.40;;;4.13;;
22894;SDS011;11614;52.494;6.976;2023-07-30T00:35:20;10.87;;;3.73;;
22894;SDS011;11614;52.494;6.976;2023-07-30T00:37:47;9.80;;;3.77;;
22894;SDS011;11614;52.494;6.976;2023-07-30T00:40:13;8.07;;;3.97;;
22894;SDS011;11614;52.494;6.976;2023-07-30T00:42:39;6.07;;;4.13;;
22894;SDS011;11614;52.494;6.976;2023-07-30T00:45:05;10.50;;;3.73;;
22894;SDS011;11614;52.494;6.976;2023-07-30T00:47:31;8.37;;;3.43;;
22894;SDS011;11614;52.494;6.976;2023-07-30T00:49:57;9.77;;;3.63;;
22894;SDS011;11614;52.494;6.976;2023-07-30T00:52:23;8.73;;;3.53;;
22894;SDS011;11614;52.494;6.976;2023-07-30T00:54:51;7.00;;;2.90;;
22894;SDS011;11614;52.494;6.976;2023-07-30T00:57:17;6.63;;;3.30;;
22894;SDS011;11614;52.494;6.976;2023-07-30T00:59:45;8.27;;;3.43;;
22894;SDS011;11614;52.494;6.976;2023-07-30T01:02:11;5.27;;;2.53;;
22894;SDS011;11614;52.494;6.976;2023-07-30T01:04:38;6.77;;;3.27;;
22894;SDS011;11614;52.494;6.976;2023-07-30T01:07:04;6.97;;;3.00;;
22894;SDS011;11614;52.494;6.976;2023-07-30T01:09:31;7.07;;;2.90;;
22894;SDS011;11614;52.494;6.976;2023-07-30T01:11:57;7.87;;;4.07;;
22894;SDS011;11614;52.494;6.976;2023-07-30T01:14:23;8.47;;;3.33;;
22894;SDS011;11614;52.494;6.976;2023-07-30T01:16:51;5.03;;;2.03;;
22894;SDS011;11614;52.494;6.976;2023-07-30T01:19:17;10.33;;;3.00;;
22894;SDS011;11614;52.494;6.976;2023-07-30T01:21:43;9.07;;;3.73;;
22894;SDS011;11614;52.494;6.976;2023-07-30T01:24:09;7.80;;;3.33;;
22894;SDS011;11614;52.494;6.976;2023-07-30T01:29:07;7.83;;;3.57;;
22894;SDS011;11614;52.494;6.976;2023-07-30T01:31:35;8.47;;;3.50;;
22894;SDS011;11614;52.494;6.976;2023-07-30T01:34:03;13.37;;;4.57;;
22894;SDS011;11614;52.494;6.976;2023-07-30T01:36:30;6.63;;;3.57;;
22894;SDS011;11614;52.494;6.976;2023-07-30T01:38:57;7.37;;;4.30;;
22894;SDS011;11614;52.494;6.976;2023-07-30T01:41:23;7.20;;;3.83;;
22894;SDS011;11614;52.494;6.976;2023-07-30T01:43:49;9.93;;;4.07;;
22894;SDS011;11614;52.494;6.976;2023-07-30T01:46:15;8.13;;;4.23;;
22894;SDS011;11614;52.494;6.976;2023-07-30T01:48:41;6.73;;;3.60;;
22894;SDS011;11614;52.494;6.976;2023-07-30T01:51:07;10.77;;;4.20;;
22894;SDS011;11614;52.494;6.976;2023-07-30T01:53:33;8.50;;;4.23;;
22894;SDS011;11614;52.494;6.976;2023-07-30T01:55:59;6.30;;;3.60;;
22894;SDS011;11614;52.494;6.976;2023-07-30T01:58:25;10.40;;;4.13;;
22894;SDS011;11614;52.494;6.976;2023-07-30T02:00:51;10.37;;;5.13;;
22894;SDS011;11614;52.494;6.976;2023-07-30T02:03:17;8.50;;;4.03;;
22894;SDS011;11614;52.494;6.976;2023-07-30T02:05:43;10.93;;;4.93;;
22894;SDS011;11614;52.494;6.976;2023-07-30T02:08:09;10.97;;;5.17;;
22894;SDS011;11614;52.494;6.976;2023-07-30T02:10:35;9.47;;;4.53;;
22894;SDS011;11614;52.494;6.976;2023-07-30T02:13:01;8.20;;;4.53;;
22894;SDS011;11614;52.494;6.976;2023-07-30T02:15:27;8.70;;;4.67;;
22894;SDS011;11614;52.494;6.976;2023-07-30T02:17:53;10.07;;;4.67;;
22894;SDS011;11614;52.494;6.976;2023-07-30T02:20:19;6.43;;;3.80;;
22894;SDS011;11614;52.494;6.976;2023-07-30T02:22:45;10.43;;;4.90;;
22894;SDS011;11614;52.494;6.976;2023-07-30T02:25:11;9.87;;;4.10;;
22894;SDS011;11614;52.494;6.976;2023-07-30T02:27:37;12.53;;;4.67;;
22894;SDS011;11614;52.494;6.976;2023-07-30T02:30:03;8.03;;;4.73;;
22894;SDS011;11614;52.494;6.976;2023-07-30T02:32:30;10.33;;;5.37;;
22894;SDS011;11614;52.494;6.976;2023-07-30T02:34:55;11.23;;;4.47;;
22894;SDS011;11614;52.494;6.976;2023-07-30T02:37:21;9.73;;;5.07;;
22894;SDS011;11614;52.494;6.976;2023-07-30T02:39:47;10.33;;;5.50;;
22894;SDS011;11614;52.494;6.976;2023-07-30T02:42:13;12.60;;;5.43;;
22894;SDS011;11614;52.494;6.976;2023-07-30T02:44:39;10.13;;;4.23;;
22894;SDS011;11614;52.494;6.976;2023-07-30T02:47:05;7.90;;;4.40;;
22894;SDS011;11614;52.494;6.976;2023-07-30T02:49:31;15.23;;;5.60;;
22894;SDS011;11614;52.494;6.976;2023-07-30T02:51:57;7.37;;;4.50;;
22894;SDS011;11614;52.494;6.976;2023-07-30T02:54:23;13.03;;;4.43;;
22894;SDS011;11614;52.494;6.976;2023-07-30T02:56:49;10.80;;;5.27;;
22894;SDS011;11614;52.494;6.976;2023-07-30T02:59:15;9.87;;;5.17;;
22894;SDS011;11614;52.494;6.976;2023-07-30T03:01:41;9.43;;;4.37;;
22894;SDS011;11614;52.494;6.976;2023-07-30T03:04:07;9.67;;;4.37;;
22894;SDS011;11614;52.494;6.976;2023-07-30T03:06:33;8.30;;;4.30;;
22894;SDS011;11614;52.494;6.976;2023-07-30T03:08:59;11.20;;;4.07;;
22894;SDS011;11614;52.494;6.976;2023-07-30T03:11:25;9.40;;;4.43;;
22894;SDS011;11614;52.494;6.976;2023-07-30T03:13:51;10.50;;;4.33;;
22894;SDS011;11614;52.494;6.976;2023-07-30T03:16:17;12.97;;;4.23;;
22894;SDS011;11614;52.494;6.976;2023-07-30T03:18:43;10.63;;;4.43;;
22894;SDS011;11614;52.494;6.976;2023-07-30T03:21:09;9.80;;;4.47;;
22894;SDS011;11614;52.494;6.976;2023-07-30T03:23:35;11.47;;;4.50;;
22894;SDS011;11614;52.494;6.976;2023-07-30T03:26:01;8.37;;;4.60;;
22894;SDS011;11614;52.494;6.976;2023-07-30T03:28:27;8.93;;;3.73;;
22894;SDS011;11614;52.494;6.976;2023-07-30T03:30:53;8.50;;;4.00;;
22894;SDS011;11614;52.494;6.976;2023-07-30T03:33:19;8.67;;;3.50;;
22894;SDS011;11614;52.494;6.976;2023-07-30T03:35:46;13.37;;;4.60;;
22894;SDS011;11614;52.494;6.976;2023-07-30T03:38:12;8.80;;;4.53;;
22894;SDS011;11614;52.494;6.976;2023-07-30T03:40:38;5.70;;;3.87;;
22894;SDS011;11614;52.494;6.976;2023-07-30T03:43:04;12.57;;;4.63;;
22894;SDS011;11614;52.494;6.976;2023-07-30T03:45:30;6.83;;;3.33;;
22894;SDS011;11614;52.494;6.976;2023-07-30T03:47:56;7.20;;;4.03;;
22894;SDS011;11614;52.494;6.976;2023-07-30T03:50:22;10.63;;;4.60;;
22894;SDS011;11614;52.494;6.976;2023-07-30T03:52:48;10.87;;;4.57;;
22894;SDS011;11614;52.494;6.976;2023-07-30T03:55:14;8.40;;;3.87;;
22894;SDS011;11614;52.494;6.976;2023-07-30T03:57:41;8.10;;;3.33;;
22894;SDS011;11614;52.494;6.976;2023-07-30T04:00:07;9.50;;;3.10;;
22894;SDS011;11614;52.494;6.976;2023-07-30T04:02:33;10.33;;;4.37;;
22894;SDS011;11614;52.494;6.976;2023-07-30T04:04:59;8.33;;;4.40;;
22894;SDS011;11614;52.494;6.976;2023-07-30T04:07:25;8.37;;;3.70;;
22894;SDS011;11614;52.494;6.976;2023-07-30T04:09:50;8.80;;;3.80;;
22894;SDS011;11614;52.494;6.976;2023-07-30T04:12:17;7.47;;;3.57;;
22894;SDS011;11614;52.494;6.976;2023-07-30T04:14:44;9.17;;;3.77;;
22894;SDS011;11614;52.494;6.976;2023-07-30T04:17:10;9.97;;;4.80;;
22894;SDS011;11614;52.494;6.976;2023-07-30T04:19:36;10.47;;;4.40;;
22894;SDS011;11614;52.494;6.976;2023-07-30T04:22:02;12.07;;;4.47;;
22894;SDS011;11614;52.494;6.976;2023-07-30T04:24:28;8.87;;;4.37;;
22894;SDS011;11614;52.494;6.976;2023-07-30T04:26:54;8.90;;;4.20;;
22894;SDS011;11614;52.494;6.976;2023-07-30T04:29:20;9.47;;;4.30;;
22894;SDS011;11614;52.494;6.976;2023-07-30T04:31:46;11.00;;;4.40;;
22894;SDS011;11614;52.494;6.976;2023-07-30T04:34:12;9.23;;;4.20;;
22894;SDS011;11614;52.494;6.976;2023-07-30T04:36:38;11.27;;;4.43;;
22894;SDS011;11614;52.494;6.976;2023-07-30T04:39:04;10.23;;;5.17;;
22894;SDS011;11614;52.494;6.976;2023-07-30T04:41:30;11.63;;;4.23;;
22894;SDS011;11614;52.494;6.976;2023-07-30T04:43:56;8.23;;;4.37;;
22894;SDS011;11614;52.494;6.976;2023-07-30T04:46:22;10.33;;;5.00;;
22894;SDS011;11614;52.494;6.976;2023-07-30T04:48:48;10.73;;;5.70;;
22894;SDS011;11614;52.494;6.976;2023-07-30T04:51:14;12.77;;;5.43;;
22894;SDS011;11614;52.494;6.976;2023-07-30T04:53:40;13.43;;;4.97;;
22894;SDS011;11614;52.494;6.976;2023-07-30T04:56:06;12.03;;;4.43;;
22894;SDS011;11614;52.494;6.976;2023-07-30T04:58:32;8.50;;;4.47;;
22894;SDS011;11614;52.494;6.976;2023-07-30T05:00:58;11.60;;;5.33;;
22894;SDS011;11614;52.494;6.976;2023-07-30T05:03:23;9.50;;;4.70;;
22894;SDS011;11614;52.494;6.976;2023-07-30T05:05:49;11.17;;;4.90;;
22894;SDS011;11614;52.494;6.976;2023-07-30T05:08:15;11.00;;;5.80;;
22894;SDS011;11614;52.494;6.976;2023-07-30T05:10:41;12.37;;;5.43;;
22894;SDS011;11614;52.494;6.976;2023-07-30T05:13:07;6.87;;;3.37;;
22894;SDS011;11614;52.494;6.976;2023-07-30T05:15:34;12.20;;;4.87;;
22894;SDS011;11614;52.494;6.976;2023-07-30T05:17:59;10.17;;;5.13;;
22894;SDS011;11614;52.494;6.976;2023-07-30T05:20:25;8.83;;;3.40;;
22894;SDS011;11614;52.494;6.976;2023-07-30T05:22:51;12.10;;;5.67;;
22894;SDS011;11614;52.494;6.976;2023-07-30T05:25:17;14.17;;;4.37;;
22894;SDS011;11614;52.494;6.976;2023-07-30T05:27:43;11.10;;;5.20;;
22894;SDS011;11614;52.494;6.976;2023-07-30T05:30:09;13.30;;;5.83;;
22894;SDS011;11614;52.494;6.976;2023-07-30T05:32:35;16.37;;;5.57;;
22894;SDS011;11614;52.494;6.976;2023-07-30T05:35:01;9.27;;;4.47;;
22894;SDS011;11614;52.494;6.976;2023-07-30T05:37:27;11.60;;;5.43;;
22894;SDS011;11614;52.494;6.976;2023-07-30T05:39:53;14.67;;;6.10;;
22894;SDS011;11614;52.494;6.976;2023-07-30T05:42:19;13.20;;;6.80;;
22894;SDS011;11614;52.494;6.976;2023-07-30T05:44:45;12.37;;;6.70;;
22894;SDS011;11614;52.494;6.976;2023-07-30T05:47:11;18.17;;;7.30;;
22894;SDS011;11614;52.494;6.976;2023-07-30T05:49:37;16.30;;;7.20;;
22894;SDS011;11614;52.494;6.976;2023-07-30T05:52:03;16.60;;;7.30;;
22894;SDS011;11614;52.494;6.976;2023-07-30T05:54:29;14.33;;;7.20;;
22894;SDS011;11614;52.494;6.976;2023-07-30T05:56:55;13.30;;;8.00;;
22894;SDS011;11614;52.494;6.976;2023-07-30T05:59:21;18.57;;;8.50;;
22894;SDS011;11614;52.494;6.976;2023-07-30T06:01:47;16.33;;;8.67;;
22894;SDS011;11614;52.494;6.976;2023-07-30T06:04:13;22.30;;;8.40;;
22894;SDS011;11614;52.494;6.976;2023-07-30T06:06:39;15.85;;;8.18;;
22894;SDS011;11614;52.494;6.976;2023-07-30T06:09:05;15.80;;;7.93;;
22894;SDS011;11614;52.494;6.976;2023-07-30T06:11:31;21.42;;;9.77;;
22894;SDS011;11614;52.494;6.976;2023-07-30T06:13:57;17.40;;;8.70;;
22894;SDS011;11614;52.494;6.976;2023-07-30T06:16:22;15.60;;;7.82;;
22894;SDS011;11614;52.494;6.976;2023-07-30T06:18:48;17.42;;;7.32;;
22894;SDS011;11614;52.494;6.976;2023-07-30T06:21:14;14.93;;;7.97;;
22894;SDS011;11614;52.494;6.976;2023-07-30T06:23:40;18.50;;;8.07;;
22894;SDS011;11614;52.494;6.976;2023-07-30T06:26:06;15.60;;;8.00;;
22894;SDS011;11614;52.494;6.976;2023-07-30T06:28:32;18.92;;;9.73;;
22894;SDS011;11614;52.494;6.976;2023-07-30T06:31:01;18.90;;;9.25;;
22894;SDS011;11614;52.494;6.976;2023-07-30T06:33:27;19.10;;;9.57;;
22894;SDS011;11614;52.494;6.976;2023-07-30T06:35:53;17.63;;;6.95;;
22894;SDS011;11614;52.494;6.976;2023-07-30T06:38:19;15.88;;;8.75;;
22894;SDS011;11614;52.494;6.976;2023-07-30T06:40:46;17.67;;;8.40;;
22894;SDS011;11614;52.494;6.976;2023-07-30T06:43:12;17.52;;;8.80;;
22894;SDS011;11614;52.494;6.976;2023-07-30T06:45:38;17.83;;;7.20;;
22894;SDS011;11614;52.494;6.976;2023-07-30T06:48:04;15.10;;;7.10;;
22894;SDS011;11614;52.494;6.976;2023-07-30T06:50:30;17.00;;;7.70;;
22894;SDS011;11614;52.494;6.976;2023-07-30T06:52:56;20.52;;;9.73;;
22894;SDS011;11614;52.494;6.976;2023-07-30T06:55:22;15.98;;;8.57;;
22894;SDS011;11614;52.494;6.976;2023-07-30T06:57:48;15.05;;;8.63;;
22894;SDS011;11614;52.494;6.976;2023-07-30T07:00:14;16.25;;;8.02;;
22894;SDS011;11614;52.494;6.976;2023-07-30T07:02:46;15.68;;;8.23;;
22894;SDS011;11614;52.494;6.976;2023-07-30T07:05:12;18.65;;;8.63;;
22894;SDS011;11614;52.494;6.976;2023-07-30T07:07:39;14.50;;;8.40;;
22894;SDS011;11614;52.494;6.976;2023-07-30T07:10:05;20.42;;;9.57;;
22894;SDS011;11614;52.494;6.976;2023-07-30T07:12:31;15.73;;;8.55;;
22894;SDS011;11614;52.494;6.976;2023-07-30T07:14:57;10.57;;;5.63;;
22894;SDS011;11614;52.494;6.976;2023-07-30T07:17:26;15.07;;;8.38;;
22894;SDS011;11614;52.494;6.976;2023-07-30T07:19:52;18.35;;;9.85;;
22894;SDS011;11614;52.494;6.976;2023-07-30T07:22:18;17.33;;;9.60;;
22894;SDS011;11614;52.494;6.976;2023-07-30T07:24:44;15.85;;;8.40;;
22894;SDS011;11614;52.494;6.976;2023-07-30T07:27:10;16.45;;;8.27;;
22894;SDS011;11614;52.494;6.976;2023-07-30T07:29:36;20.15;;;8.73;;
22894;SDS011;11614;52.494;6.976;2023-07-30T07:32:03;17.50;;;8.60;;
22894;SDS011;11614;52.494;6.976;2023-07-30T07:34:29;20.45;;;9.35;;
22894;SDS011;11614;52.494;6.976;2023-07-30T07:36:55;13.98;;;7.97;;
22894;SDS011;11614;52.494;6.976;2023-07-30T07:39:21;18.23;;;9.43;;
22894;SDS011;11614;52.494;6.976;2023-07-30T07:41:47;17.80;;;9.43;;
22894;SDS011;11614;52.494;6.976;2023-07-30T07:44:13;18.98;;;9.13;;
22894;SDS011;11614;52.494;6.976;2023-07-30T07:46:39;15.10;;;7.90;;
22894;SDS011;11614;52.494;6.976;2023-07-30T07:49:05;21.00;;;9.68;;
22894;SDS011;11614;52.494;6.976;2023-07-30T07:51:33;13.90;;;8.15;;
22894;SDS011;11614;52.494;6.976;2023-07-30T07:53:59;14.23;;;7.65;;
22894;SDS011;11614;52.494;6.976;2023-07-30T07:56:25;15.85;;;8.88;;
22894;SDS011;11614;52.494;6.976;2023-07-30T07:58:51;15.98;;;7.93;;
22894;SDS011;11614;52.494;6.976;2023-07-30T08:01:17;14.18;;;7.90;;
22894;SDS011;11614;52.494;6.976;2023-07-30T08:03:43;14.00;;;7.35;;
22894;SDS011;11614;52.494;6.976;2023-07-30T08:06:09;12.73;;;6.32;;
22894;SDS011;11614;52.494;6.976;2023-07-30T08:08:35;12.57;;;7.95;;
22894;SDS011;11614;52.494;6.976;2023-07-30T08:11:07;11.70;;;7.22;;
22894;SDS011;11614;52.494;6.976;2023-07-30T08:13:34;16.67;;;7.35;;
22894;SDS011;11614;52.494;6.976;2023-07-30T08:16:00;14.50;;;6.63;;
22894;SDS011;11614;52.494;6.976;2023-07-30T08:18:26;16.05;;;7.97;;
22894;SDS011;11614;52.494;6.976;2023-07-30T08:20:52;15.55;;;7.90;;
22894;SDS011;11614;52.494;6.976;2023-07-30T08:23:18;10.70;;;6.75;;
22894;SDS011;11614;52.494;6.976;2023-07-30T08:25:47;16.13;;;7.15;;
22894;SDS011;11614;52.494;6.976;2023-07-30T08:28:15;13.95;;;7.47;;
22894;SDS011;11614;52.494;6.976;2023-07-30T08:30:41;14.35;;;7.32;;
22894;SDS011;11614;52.494;6.976;2023-07-30T08:33:07;17.48;;;7.40;;
22894;SDS011;11614;52.494;6.976;2023-07-30T08:35:33;16.83;;;7.15;;
22894;SDS011;11614;52.494;6.976;2023-07-30T08:37:59;14.50;;;7.20;;
22894;SDS011;11614;52.494;6.976;2023-07-30T08:40:25;12.52;;;6.25;;
22894;SDS011;11614;52.494;6.976;2023-07-30T08:42:51;11.68;;;6.40;;
22894;SDS011;11614;52.494;6.976;2023-07-30T08:45:17;16.88;;;6.65;;
22894;SDS011;11614;52.494;6.976;2023-07-30T08:47:44;10.73;;;6.10;;
22894;SDS011;11614;52.494;6.976;2023-07-30T08:50:10;13.38;;;5.63;;
22894;SDS011;11614;52.494;6.976;2023-07-30T08:52:36;12.65;;;6.05;;
22894;SDS011;11614;52.494;6.976;2023-07-30T08:55:03;14.98;;;7.88;;
22894;SDS011;11614;52.494;6.976;2023-07-30T08:57:29;12.23;;;6.97;;
22894;SDS011;11614;52.494;6.976;2023-07-30T09:00:11;13.48;;;6.47;;
22894;SDS011;11614;52.494;6.976;2023-07-30T09:02:38;10.23;;;5.90;;
22894;SDS011;11614;52.494;6.976;2023-07-30T09:05:05;11.13;;;6.43;;
22894;SDS011;11614;52.494;6.976;2023-07-30T09:07:31;14.43;;;6.80;;
22894;SDS011;11614;52.494;6.976;2023-07-30T09:09:58;8.60;;;6.88;;
22894;SDS011;11614;52.494;6.976;2023-07-30T09:12:30;10.05;;;5.53;;
22894;SDS011;11614;52.494;6.976;2023-07-30T09:14:57;6.25;;;4.85;;
22894;SDS011;11614;52.494;6.976;2023-07-30T09:17:23;11.38;;;5.82;;
22894;SDS011;11614;52.494;6.976;2023-07-30T09:19:50;13.27;;;5.97;;
22894;SDS011;11614;52.494;6.976;2023-07-30T09:22:25;6.80;;;4.50;;
22894;SDS011;11614;52.494;6.976;2023-07-30T09:24:55;9.45;;;5.35;;
22894;SDS011;11614;52.494;6.976;2023-07-30T09:27:22;9.50;;;5.45;;
22894;SDS011;11614;52.494;6.976;2023-07-30T09:29:51;8.57;;;4.57;;
22894;SDS011;11614;52.494;6.976;2023-07-30T09:32:17;6.95;;;4.03;;
22894;SDS011;11614;52.494;6.976;2023-07-30T09:34:44;6.90;;;3.72;;
22894;SDS011;11614;52.494;6.976;2023-07-30T09:37:11;8.45;;;4.65;;
22894;SDS011;11614;52.494;6.976;2023-07-30T09:39:37;6.35;;;3.35;;
22894;SDS011;11614;52.494;6.976;2023-07-30T09:42:03;8.30;;;4.40;;
22894;SDS011;11614;52.494;6.976;2023-07-30T09:44:29;8.93;;;4.45;;
22894;SDS011;11614;52.494;6.976;2023-07-30T09:46:58;9.65;;;4.38;;
22894;SDS011;11614;52.494;6.976;2023-07-30T09:49:29;7.75;;;4.25;;
22894;SDS011;11614;52.494;6.976;2023-07-30T09:51:57;9.07;;;4.68;;
22894;SDS011;11614;52.494;6.976;2023-07-30T09:54:23;12.80;;;4.93;;
22894;SDS011;11614;52.494;6.976;2023-07-30T09:56:49;6.22;;;3.28;;
22894;SDS011;11614;52.494;6.976;2023-07-30T09:59:15;7.53;;;3.15;;
22894;SDS011;11614;52.494;6.976;2023-07-30T10:01:43;7.00;;;3.80;;
22894;SDS011;11614;52.494;6.976;2023-07-30T10:04:10;4.85;;;3.13;;
22894;SDS011;11614;52.494;6.976;2023-07-30T10:06:44;8.13;;;3.75;;
22894;SDS011;11614;52.494;6.976;2023-07-30T10:09:11;8.75;;;4.25;;
22894;SDS011;11614;52.494;6.976;2023-07-30T10:11:37;8.68;;;3.67;;
22894;SDS011;11614;52.494;6.976;2023-07-30T10:14:05;9.57;;;3.95;;
22894;SDS011;11614;52.494;6.976;2023-07-30T10:16:32;8.85;;;4.18;;
22894;SDS011;11614;52.494;6.976;2023-07-30T10:18:58;5.47;;;2.50;;
22894;SDS011;11614;52.494;6.976;2023-07-30T10:21:25;7.68;;;3.17;;
22894;SDS011;11614;52.494;6.976;2023-07-30T10:23:58;8.38;;;4.18;;
22894;SDS011;11614;52.494;6.976;2023-07-30T10:26:28;9.50;;;4.97;;
22894;SDS011;11614;52.494;6.976;2023-07-30T10:29:10;9.75;;;4.63;;
22894;SDS011;11614;52.494;6.976;2023-07-30T10:31:55;11.15;;;4.75;;
22894;SDS011;11614;52.494;6.976;2023-07-30T10:34:22;9.27;;;4.25;;
22894;SDS011;11614;52.494;6.976;2023-07-30T10:36:52;8.85;;;4.65;;
22894;SDS011;11614;52.494;6.976;2023-07-30T10:39:22;9.63;;;4.70;;
22894;SDS011;11614;52.494;6.976;2023-07-30T10:41:53;10.65;;;4.63;;
22894;SDS011;11614;52.494;6.976;2023-07-30T10:44:26;8.07;;;3.90;;
22894;SDS011;11614;52.494;6.976;2023-07-30T10:46:53;8.15;;;3.67;;
22894;SDS011;11614;52.494;6.976;2023-07-30T10:49:19;6.75;;;3.15;;
22894;SDS011;11614;52.494;6.976;2023-07-30T10:51:46;8.32;;;3.90;;
22894;SDS011;11614;52.494;6.976;2023-07-30T10:54:12;13.35;;;5.15;;
22894;SDS011;11614;52.494;6.976;2023-07-30T10:56:38;9.57;;;4.95;;
22894;SDS011;11614;52.494;6.976;2023-07-30T10:59:06;8.75;;;4.03;;
22894;SDS011;11614;52.494;6.976;2023-07-30T11:01:42;9.18;;;4.25;;
22894;SDS011;11614;52.494;6.976;2023-07-30T11:04:13;8.00;;;3.85;;
22894;SDS011;11614;52.494;6.976;2023-07-30T11:06:44;8.55;;;4.63;;
22894;SDS011;11614;52.494;6.976;2023-07-30T11:09:20;7.57;;;4.93;;
22894;SDS011;11614;52.494;6.976;2023-07-30T11:11:46;10.18;;;5.10;;
22894;SDS011;11614;52.494;6.976;2023-07-30T11:14:16;5.63;;;4.07;;
22894;SDS011;11614;52.494;6.976;2023-07-30T11:19:14;7.43;;;4.47;;
22894;SDS011;11614;52.494;6.976;2023-07-30T11:21:51;13.63;;;6.47;;
22894;SDS011;11614;52.494;6.976;2023-07-30T11:24:18;11.98;;;4.82;;
22894;SDS011;11614;52.494;6.976;2023-07-30T11:26:44;8.02;;;5.05;;
22894;SDS011;11614;52.494;6.976;2023-07-30T11:29:17;13.98;;;6.63;;
22894;SDS011;11614;52.494;6.976;2023-07-30T11:31:44;12.80;;;6.55;;
22894;SDS011;11614;52.494;6.976;2023-07-30T11:34:10;10.43;;;6.18;;
22894;SDS011;11614;52.494;6.976;2023-07-30T11:36:36;8.90;;;5.82;;
22894;SDS011;11614;52.494;6.976;2023-07-30T11:39:02;11.73;;;5.40;;
22894;SDS011;11614;52.494;6.976;2023-07-30T11:41:29;7.82;;;4.00;;
22894;SDS011;11614;52.494;6.976;2023-07-30T11:43:55;7.45;;;3.17;;
22894;SDS011;11614;52.494;6.976;2023-07-30T11:46:21;8.82;;;3.92;;
22894;SDS011;11614;52.494;6.976;2023-07-30T11:48:51;6.18;;;3.33;;
22894;SDS011;11614;52.494;6.976;2023-07-30T11:51:27;7.50;;;2.80;;
22894;SDS011;11614;52.494;6.976;2023-07-30T11:56:21;4.65;;;2.05;;
22894;SDS011;11614;52.494;6.976;2023-07-30T11:58:48;4.28;;;2.58;;
22894;SDS011;11614;52.494;6.976;2023-07-30T12:01:15;5.05;;;2.05;;
22894;SDS011;11614;52.494;6.976;2023-07-30T12:03:42;6.55;;;2.35;;
22894;SDS011;11614;52.494;6.976;2023-07-30T12:06:11;4.53;;;0.90;;
22894;SDS011;11614;52.494;6.976;2023-07-30T12:08:37;3.10;;;1.55;;
22894;SDS011;11614;52.494;6.976;2023-07-30T12:11:07;3.28;;;1.98;;
22894;SDS011;11614;52.494;6.976;2023-07-30T12:13:33;6.18;;;2.40;;
22894;SDS011;11614;52.494;6.976;2023-07-30T12:16:00;3.10;;;2.20;;
22894;SDS011;11614;52.494;6.976;2023-07-30T12:18:26;5.57;;;2.53;;
22894;SDS011;11614;52.494;6.976;2023-07-30T12:20:54;4.20;;;2.20;;
22894;SDS011;11614;52.494;6.976;2023-07-30T12:23:21;5.53;;;2.03;;
22894;SDS011;11614;52.494;6.976;2023-07-30T12:25:47;7.10;;;3.15;;
22894;SDS011;11614;52.494;6.976;2023-07-30T12:28:13;3.38;;;2.33;;
22894;SDS011;11614;52.494;6.976;2023-07-30T12:30:39;4.15;;;2.80;;
22894;SDS011;11614;52.494;6.976;2023-07-30T12:33:05;3.85;;;2.45;;
22894;SDS011;11614;52.494;6.976;2023-07-30T12:35:32;5.80;;;2.38;;
22894;SDS011;11614;52.494;6.976;2023-07-30T12:37:58;6.35;;;2.42;;
22894;SDS011;11614;52.494;6.976;2023-07-30T12:40:24;5.57;;;3.17;;
22894;SDS011;11614;52.494;6.976;2023-07-30T12:42:50;6.25;;;2.30;;
22894;SDS011;11614;52.494;6.976;2023-07-30T12:45:16;2.95;;;2.20;;
22894;SDS011;11614;52.494;6.976;2023-07-30T12:47:42;5.18;;;2.75;;
22894;SDS011;11614;52.494;6.976;2023-07-30T12:50:10;3.03;;;1.48;;
22894;SDS011;11614;52.494;6.976;2023-07-30T12:52:36;3.75;;;2.25;;
22894;SDS011;11614;52.494;6.976;2023-07-30T12:55:02;3.70;;;1.80;;
22894;SDS011;11614;52.494;6.976;2023-07-30T12:57:31;4.53;;;2.30;;
22894;SDS011;11614;52.494;6.976;2023-07-30T12:59:57;5.40;;;2.17;;
22894;SDS011;11614;52.494;6.976;2023-07-30T13:02:23;4.55;;;2.17;;
22894;SDS011;11614;52.494;6.976;2023-07-30T13:04:49;3.00;;;1.52;;
22894;SDS011;11614;52.494;6.976;2023-07-30T13:07:15;2.65;;;1.65;;
22894;SDS011;11614;52.494;6.976;2023-07-30T13:09:41;5.65;;;1.63;;
22894;SDS011;11614;52.494;6.976;2023-07-30T13:12:07;3.22;;;1.85;;
22894;SDS011;11614;52.494;6.976;2023-07-30T13:14:33;3.22;;;1.58;;
22894;SDS011;11614;52.494;6.976;2023-07-30T13:16:59;2.60;;;1.35;;
22894;SDS011;11614;52.494;6.976;2023-07-30T13:19:25;3.92;;;2.13;;
22894;SDS011;11614;52.494;6.976;2023-07-30T13:21:53;3.38;;;2.15;;
22894;SDS011;11614;52.494;6.976;2023-07-30T13:24:19;6.55;;;1.92;;
22894;SDS011;11614;52.494;6.976;2023-07-30T13:26:45;3.00;;;1.73;;
22894;SDS011;11614;52.494;6.976;2023-07-30T13:29:11;1.90;;;1.63;;
22894;SDS011;11614;52.494;6.976;2023-07-30T13:31:37;2.58;;;1.30;;
22894;SDS011;11614;52.494;6.976;2023-07-30T13:34:03;2.35;;;1.73;;
22894;SDS011;11614;52.494;6.976;2023-07-30T13:36:29;2.85;;;2.30;;
22894;SDS011;11614;52.494;6.976;2023-07-30T13:38:55;6.43;;;3.33;;
22894;SDS011;11614;52.494;6.976;2023-07-30T13:41:21;2.67;;;2.38;;
22894;SDS011;11614;52.494;6.976;2023-07-30T13:43:47;2.58;;;2.00;;
22894;SDS011;11614;52.494;6.976;2023-07-30T13:46:13;7.65;;;3.70;;
22894;SDS011;11614;52.494;6.976;2023-07-30T13:48:39;5.28;;;3.58;;
22894;SDS011;11614;52.494;6.976;2023-07-30T13:51:05;9.00;;;4.13;;
22894;SDS011;11614;52.494;6.976;2023-07-30T13:53:32;9.88;;;4.10;;
22894;SDS011;11614;52.494;6.976;2023-07-30T13:56:00;4.43;;;1.77;;
22894;SDS011;11614;52.494;6.976;2023-07-30T13:58:26;1.70;;;1.42;;
22894;SDS011;11614;52.494;6.976;2023-07-30T14:00:53;8.07;;;3.60;;
22894;SDS011;11614;52.494;6.976;2023-07-30T14:03:20;9.80;;;3.67;;
22894;SDS011;11614;52.494;6.976;2023-07-30T14:05:46;9.07;;;3.42;;
22894;SDS011;11614;52.494;6.976;2023-07-30T14:08:12;20.63;;;5.82;;
22894;SDS011;11614;52.494;6.976;2023-07-30T14:10:38;18.02;;;4.65;;
22894;SDS011;11614;52.494;6.976;2023-07-30T14:13:04;20.48;;;4.82;;
22894;SDS011;11614;52.494;6.976;2023-07-30T14:15:30;18.02;;;4.55;;
22894;SDS011;11614;52.494;6.976;2023-07-30T14:17:57;17.33;;;4.57;;
22894;SDS011;11614;52.494;6.976;2023-07-30T14:20:23;18.63;;;5.20;;
22894;SDS011;11614;52.494;6.976;2023-07-30T14:22:49;18.45;;;4.53;;
22894;SDS011;11614;52.494;6.976;2023-07-30T14:25:17;20.20;;;4.88;;
22894;SDS011;11614;52.494;6.976;2023-07-30T14:27:43;27.38;;;6.40;;
22894;SDS011;11614;52.494;6.976;2023-07-30T14:30:09;18.25;;;4.22;;
22894;SDS011;11614;52.494;6.976;2023-07-30T14:32:35;24.10;;;5.45;;
22894;SDS011;11614;52.494;6.976;2023-07-30T14:35:01;5.45;;;3.10;;
22894;SDS011;11614;52.494;6.976;2023-07-30T14:37:27;4.68;;;2.28;;
22894;SDS011;11614;52.494;6.976;2023-07-30T14:39:53;8.73;;;6.45;;
22894;SDS011;11614;52.494;6.976;2023-07-30T14:42:19;3.97;;;2.55;;
22894;SDS011;11614;52.494;6.976;2023-07-30T14:44:45;6.38;;;2.83;;